Locke, NY (13092)

5:06 AM EDT on August 30, 2015 (GMT -0400)
Moravia weather station | | Change Station
CLOSE
Current Station
Personal Weather Station
Location: Moravia, NY
Elevation: 761 ft
Nearby Weather Stations

Elev 761 ft 42.70 °N, 76.42 °W | Updated 6 minutes ago

Overcast
Overcast
61.3 °F
Feels Like 61.3 °F
N
0.0
Wind Variable Wind from SSW

Today
High -- | Low -- °F
--% Chance of Precip.
Yesterday
High -- | Low -- °F
Precip. -- in
6:28 AM 7:43 PM
Waxing Gibbous, 99% visible
Pressure 30.09 in
Visibility 10.0 miles
Clouds Scattered Clouds 9000 ft
Dew Point 60 °F
Humidity 96%
Rainfall 0.00 in
Snow Depth Not available.
UV 0 out of 12
Pollen 8.90 out of 12
Air Quality Not available.
Flu Activity Not available.
METAR KITH 300856Z AUTO 10004KT 10SM SCT090 17/16 A3010 RMK AO2 56006 T01660155 SLP188
Pressure 30.09 in
Visibility 10.0 miles
Clouds Scattered Clouds 9000 ft
Dew Point 60 °F
Humidity 96%
Rainfall 0.00 in
Snow Depth Not available.
UV 0 out of 12
Pollen 8.90 out of 12
Air Quality Not available.
Flu Activity Not available.
METAR KITH 300856Z AUTO 10004KT 10SM SCT090 17/16 A3010 RMK AO2 56006 T01660155 SLP188

10-Day Weather Forecast

×

Almanac

Astronomy

Aug. 30, 2015 Rise Set
Actual Time
Civil Twilight
Nautical Twilight
Astronomical Twilight
Moon
Length of Visible Light
Length of Day
Tomorrow will be .
, % of the Moon is Illuminated

Today's Extremes

State Highs State Lows

Community

WunderPhotos

Upload Photos

1,850,909 photos uploaded!

WunderBlogs® & News

Nearby

Air Quality

  Air Quality AQ Index Pollutant
Not available.

Snow Depth

Station Depth Elevation

Earthquake Activity

City Distance Mag. Time & Date
Minimum magnitude displayed is 2.5.

Coastal Water Temperatures

Place Temperature

Stations

Nearby Weather Stations

Station Location Temp. Windchill Dew Point Humidity Wind Precip. Elev Updated Type